createdAt,value
2023-04-17T00:01:57.597Z,11.05
2023-04-17T00:04:59.295Z,11.07
2023-04-17T00:08:01.743Z,11.07
2023-04-17T00:11:07.926Z,11.08
2023-04-17T00:14:10.386Z,11.08
2023-04-17T00:17:12.270Z,11.09
2023-04-17T00:20:14.244Z,11.08
2023-04-17T00:23:15.909Z,11.07
2023-04-17T00:26:18.948Z,11.07
2023-04-17T00:29:21.023Z,11.05
2023-04-17T00:32:22.784Z,11.05
2023-04-17T00:35:24.532Z,11.04
2023-04-17T00:38:26.205Z,11.02
2023-04-17T00:41:27.969Z,11.00
2023-04-17T00:44:29.671Z,10.98
2023-04-17T00:47:32.438Z,10.94
2023-04-17T00:50:35.312Z,10.90
2023-04-17T00:53:37.349Z,10.85
2023-04-17T00:56:39.150Z,10.81
2023-04-17T00:59:41.257Z,10.75
2023-04-17T01:02:44.256Z,10.69
2023-04-17T01:05:49.574Z,10.64
2023-04-17T01:08:51.754Z,10.58
2023-04-17T01:11:53.509Z,10.51
2023-04-17T01:14:56.665Z,10.46
2023-04-17T01:17:58.746Z,10.42
2023-04-17T01:21:02.655Z,10.38
2023-04-17T01:24:04.988Z,10.32
2023-04-17T01:27:07.183Z,10.27
2023-04-17T01:30:10.416Z,10.23
2023-04-17T01:33:18.725Z,10.16
2023-04-17T01:36:20.884Z,10.12
2023-04-17T01:39:22.980Z,10.09
2023-04-17T01:42:25.064Z,10.05
2023-04-17T01:45:26.808Z,10.01
2023-04-17T01:48:28.511Z,9.97
2023-04-17T01:51:30.623Z,9.93
2023-04-17T01:54:32.903Z,9.90
2023-04-17T01:57:34.678Z,9.86
2023-04-17T02:00:36.405Z,9.84
2023-04-17T02:03:38.345Z,9.83
2023-04-17T02:06:40.123Z,9.82
2023-04-17T02:09:41.807Z,9.79
2023-04-17T02:12:43.473Z,9.76
2023-04-17T02:15:45.488Z,9.72
2023-04-17T02:18:49.479Z,9.69
2023-04-17T02:21:51.131Z,9.66
2023-04-17T02:24:52.778Z,9.62
2023-04-17T02:27:55.658Z,9.60
2023-04-17T02:30:57.427Z,9.59
2023-04-17T02:33:59.152Z,9.57
2023-04-17T02:37:01.669Z,9.57
2023-04-17T02:40:06.824Z,9.55
2023-04-17T02:43:08.590Z,9.57
2023-04-17T02:46:10.735Z,9.56
2023-04-17T02:49:12.717Z,9.55
2023-04-17T02:52:14.892Z,9.54
2023-04-17T02:55:16.847Z,9.51
2023-04-17T02:58:18.739Z,9.49
2023-04-17T03:01:21.940Z,9.46
2023-04-17T03:04:24.022Z,9.44
2023-04-17T03:07:26.955Z,9.41
2023-04-17T03:10:28.840Z,9.39
2023-04-17T03:13:32.786Z,9.35
2023-04-17T03:16:34.462Z,9.32
2023-04-17T03:19:39.793Z,9.30
2023-04-17T03:22:41.463Z,9.27
2023-04-17T03:25:43.324Z,9.25
2023-04-17T03:28:45.269Z,9.21
2023-04-17T03:31:46.981Z,9.18
2023-04-17T03:34:48.940Z,9.17
2023-04-17T03:37:50.841Z,9.15
2023-04-17T03:40:52.610Z,9.15
2023-04-17T03:43:54.839Z,9.17
2023-04-17T03:46:56.496Z,9.21
2023-04-17T03:49:58.266Z,9.22
2023-04-17T03:53:00.381Z,9.26
2023-04-17T03:56:03.102Z,9.31
2023-04-17T03:59:08.286Z,9.34
2023-04-17T04:02:14.185Z,9.40
2023-04-17T04:05:16.224Z,9.45
2023-04-17T04:08:18.172Z,9.50
2023-04-17T04:11:22.824Z,9.55
2023-04-17T04:14:24.747Z,9.60
2023-04-17T04:17:27.070Z,9.66
2023-04-17T04:20:30.109Z,9.71
2023-04-17T04:23:42.232Z,9.77
2023-04-17T04:26:49.056Z,9.83
2023-04-17T04:29:51.466Z,9.88
2023-04-17T04:32:55.489Z,9.94
2023-04-17T04:36:00.756Z,9.99
2023-04-17T04:39:06.182Z,10.03
2023-04-17T04:42:10.605Z,10.08
2023-04-17T04:45:30.869Z,10.12
2023-04-17T04:48:33.528Z,10.15
2023-04-17T04:51:35.511Z,10.18
2023-04-17T04:54:39.195Z,10.21
2023-04-17T04:57:41.024Z,10.24
2023-04-17T05:00:43.086Z,10.27
2023-04-17T05:03:47.868Z,10.29
2023-04-17T05:06:56.477Z,10.31
2023-04-17T05:09:58.305Z,10.34
2023-04-17T05:13:00.665Z,10.36
2023-04-17T05:16:02.570Z,10.39
2023-04-17T05:19:04.674Z,10.41
2023-04-17T05:22:19.608Z,10.43
2023-04-17T05:25:33.394Z,10.44
2023-04-17T05:28:35.538Z,10.46
2023-04-17T05:31:38.146Z,10.49
2023-04-17T05:34:43.014Z,10.50
2023-04-17T05:37:45.153Z,10.52
2023-04-17T05:40:46.897Z,10.54
2023-04-17T05:43:48.602Z,10.56
2023-04-17T05:46:50.339Z,10.58
2023-04-17T05:49:56.773Z,10.62
2023-04-17T05:52:58.770Z,10.64
2023-04-17T05:56:02.820Z,10.67
2023-04-17T05:59:05.644Z,10.71
2023-04-17T06:02:08.792Z,10.75
2023-04-17T06:05:10.965Z,10.80
2023-04-17T06:08:12.906Z,10.85
2023-04-17T06:11:15.183Z,10.90
2023-04-17T06:14:17.943Z,10.95
2023-04-17T06:17:19.665Z,10.98
2023-04-17T06:20:22.850Z,11.02
2023-04-17T06:23:24.676Z,11.06
2023-04-17T06:26:26.489Z,11.10
2023-04-17T06:29:28.224Z,11.14
2023-04-17T06:32:30.193Z,11.20
2023-04-17T06:35:32.361Z,11.25
2023-04-17T06:38:41.867Z,11.31
2023-04-17T06:41:43.796Z,11.41
2023-04-17T06:44:46.724Z,11.52
2023-04-17T06:47:48.465Z,11.61
2023-04-17T06:50:53.132Z,11.69
2023-04-17T06:53:55.543Z,11.74
2023-04-17T06:56:57.330Z,11.77
2023-04-17T06:59:59.200Z,11.82
2023-04-17T07:03:01.824Z,11.85
2023-04-17T07:06:03.746Z,11.89
2023-04-17T07:09:05.578Z,11.92
2023-04-17T07:12:07.280Z,11.95
2023-04-17T07:15:09.399Z,11.97
2023-04-17T07:18:11.210Z,12.00
2023-04-17T07:21:12.999Z,12.07
2023-04-17T07:24:15.094Z,12.16
2023-04-17T07:27:17.410Z,12.23
2023-04-17T07:30:19.083Z,12.25
2023-04-17T07:33:21.191Z,12.28
2023-04-17T07:36:23.524Z,12.31
2023-04-17T07:39:27.932Z,12.33
2023-04-17T07:42:29.716Z,12.36
2023-04-17T07:45:32.864Z,12.38
2023-04-17T07:48:34.747Z,12.41
2023-04-17T07:51:37.734Z,12.48
2023-04-17T07:54:39.513Z,12.56
2023-04-17T07:57:42.026Z,12.60
2023-04-17T08:00:44.000Z,12.65
2023-04-17T08:03:48.397Z,12.70
2023-04-17T08:06:50.603Z,12.75
2023-04-17T08:09:52.447Z,12.86
2023-04-17T08:12:55.925Z,12.97
2023-04-17T08:15:58.960Z,13.07
2023-04-17T08:19:01.990Z,13.14
2023-04-17T08:22:05.595Z,13.19
2023-04-17T08:25:08.871Z,13.25
2023-04-17T08:28:10.645Z,13.35
2023-04-17T08:31:13.293Z,13.48
2023-04-17T08:34:16.502Z,13.60
2023-04-17T08:37:22.058Z,13.74
2023-04-17T08:40:25.624Z,13.82
2023-04-17T08:43:28.877Z,13.85
2023-04-17T08:46:31.630Z,13.86
2023-04-17T08:49:35.078Z,13.83
2023-04-17T08:52:44.996Z,13.81
2023-04-17T08:55:48.830Z,13.80
2023-04-17T08:58:50.585Z,13.85
2023-04-17T09:02:07.267Z,13.89
2023-04-17T09:05:20.492Z,13.98
2023-04-17T09:08:25.167Z,14.18
2023-04-17T09:11:27.538Z,14.48
2023-04-17T09:14:30.039Z,14.81
2023-04-17T09:17:34.025Z,15.06
2023-04-17T09:20:49.003Z,15.33
2023-04-17T09:23:55.975Z,15.58
2023-04-17T09:27:21.582Z,15.70
2023-04-17T09:30:26.362Z,15.76
2023-04-17T09:33:28.151Z,15.76
2023-04-17T09:36:32.491Z,15.80
2023-04-17T09:39:34.329Z,15.88
2023-04-17T09:42:59.251Z,16.00
2023-04-17T09:46:02.771Z,16.07
2023-04-17T09:49:07.522Z,16.18
2023-04-17T09:52:09.528Z,16.36
2023-04-17T09:55:12.377Z,16.53
2023-04-17T09:58:15.859Z,16.66
2023-04-17T10:01:19.359Z,16.72
2023-04-17T10:04:22.842Z,16.71
2023-04-17T10:07:25.388Z,16.63
2023-04-17T10:10:32.964Z,16.57
2023-04-17T10:13:41.990Z,16.52
2023-04-17T10:16:44.037Z,16.45
2023-04-17T10:19:48.410Z,16.34
2023-04-17T10:22:55.428Z,16.25
2023-04-17T10:26:26.570Z,16.19
2023-04-17T10:29:57.029Z,16.28
2023-04-17T10:33:19.425Z,16.37
2023-04-17T10:36:41.626Z,16.32
2023-04-17T10:40:10.058Z,16.30
2023-04-17T10:43:22.143Z,16.26
2023-04-17T10:46:25.748Z,16.21
2023-04-17T10:49:27.716Z,16.14
2023-04-17T10:52:41.859Z,16.10
2023-04-17T10:55:50.587Z,16.06
2023-04-17T10:59:04.846Z,16.05
2023-04-17T11:02:07.614Z,16.06
2023-04-17T11:05:10.552Z,16.10
2023-04-17T11:08:12.620Z,16.10
2023-04-17T11:11:16.811Z,16.08
2023-04-17T11:14:22.835Z,16.03
2023-04-17T11:17:25.267Z,15.97
2023-04-17T11:20:31.762Z,15.92
2023-04-17T11:23:33.930Z,15.87
2023-04-17T11:26:43.332Z,15.79
2023-04-17T11:29:45.450Z,15.67
2023-04-17T11:32:47.379Z,15.56
2023-04-17T11:35:49.180Z,15.48
2023-04-17T11:38:53.871Z,15.44
2023-04-17T11:41:57.484Z,15.43
2023-04-17T11:45:04.613Z,15.42
2023-04-17T11:48:09.031Z,15.40
2023-04-17T11:51:12.876Z,15.38
2023-04-17T11:54:34.129Z,15.35
2023-04-17T11:57:44.997Z,15.32
2023-04-17T12:01:03.807Z,15.30
2023-04-17T12:04:20.171Z,15.27
2023-04-17T12:07:25.896Z,15.21
2023-04-17T12:10:37.807Z,15.17
2023-04-17T12:13:39.597Z,15.11
2023-04-17T12:16:41.488Z,15.06
2023-04-17T12:19:44.652Z,15.02
2023-04-17T12:22:46.474Z,14.97
2023-04-17T12:25:48.259Z,14.92
2023-04-17T12:28:50.677Z,14.87
2023-04-17T12:31:52.529Z,14.82
2023-04-17T12:34:55.545Z,14.77
2023-04-17T12:37:57.324Z,14.72
2023-04-17T12:40:59.425Z,14.67
2023-04-17T12:44:02.949Z,14.61
2023-04-17T12:47:05.292Z,14.56
2023-04-17T12:50:07.352Z,14.52
2023-04-17T12:53:10.878Z,14.50
2023-04-17T12:56:12.640Z,14.45
2023-04-17T12:59:14.365Z,14.41
2023-04-17T13:02:17.973Z,14.39
2023-04-17T13:05:19.800Z,14.37
2023-04-17T13:08:21.648Z,14.35
2023-04-17T13:11:23.483Z,14.34
2023-04-17T13:14:25.302Z,14.34
2023-04-17T13:17:27.319Z,14.35
2023-04-17T13:20:29.495Z,14.37
2023-04-17T13:23:31.362Z,14.41
2023-04-17T13:26:33.191Z,14.47
2023-04-17T13:29:35.432Z,14.51
2023-04-17T13:32:38.877Z,14.55
2023-04-17T13:35:40.823Z,14.59
2023-04-17T13:38:42.587Z,14.61
2023-04-17T13:41:45.105Z,14.64
2023-04-17T13:44:46.969Z,14.71
2023-04-17T13:47:48.811Z,14.83
2023-04-17T13:50:50.609Z,14.93
2023-04-17T13:53:52.792Z,15.02
2023-04-17T13:56:54.603Z,15.04
2023-04-17T13:59:56.253Z,15.01
2023-04-17T14:02:59.516Z,14.95
2023-04-17T14:06:01.579Z,14.89
2023-04-17T14:09:03.460Z,14.83
2023-04-17T14:12:05.607Z,14.76
2023-04-17T14:15:07.700Z,14.70
2023-04-17T14:18:09.726Z,14.67
2023-04-17T14:21:11.764Z,14.63
2023-04-17T14:24:13.501Z,14.61
2023-04-17T14:27:15.887Z,14.60
2023-04-17T14:30:17.950Z,14.58
2023-04-17T14:33:35.222Z,14.58
2023-04-17T14:36:52.179Z,14.56
2023-04-17T14:40:09.165Z,14.52
2023-04-17T14:43:11.132Z,14.46
2023-04-17T14:46:12.966Z,14.41
2023-04-17T14:49:15.203Z,14.37
2023-04-17T14:52:16.718Z,14.33
2023-04-17T14:55:18.538Z,14.31
2023-04-17T14:58:20.138Z,14.30
2023-04-17T15:01:21.786Z,14.29
2023-04-17T15:04:23.515Z,14.29
2023-04-17T15:07:25.266Z,14.28
2023-04-17T15:10:28.689Z,14.26
2023-04-17T15:13:31.963Z,14.25
2023-04-17T15:16:33.667Z,14.23
2023-04-17T15:19:35.303Z,14.21
2023-04-17T15:22:36.907Z,14.20
2023-04-17T15:25:38.572Z,14.19
2023-04-17T15:28:40.519Z,14.20
2023-04-17T15:31:42.252Z,14.19
2023-04-17T15:34:48.057Z,14.17
2023-04-17T15:37:49.728Z,14.15
2023-04-17T15:40:51.518Z,14.13
2023-04-17T15:43:53.118Z,14.11
2023-04-17T15:46:54.848Z,14.11
2023-04-17T15:49:56.502Z,14.09
2023-04-17T15:52:58.092Z,14.08
2023-04-17T15:56:00.013Z,14.06
2023-04-17T15:59:01.934Z,14.04
2023-04-17T16:02:03.777Z,14.01
2023-04-17T16:05:05.895Z,13.99
2023-04-17T16:08:07.514Z,13.97
2023-04-17T16:11:10.314Z,13.95
2023-04-17T16:14:11.892Z,13.92
2023-04-17T16:17:13.530Z,13.90
2023-04-17T16:20:15.388Z,13.87
2023-04-17T16:23:17.409Z,13.84
2023-04-17T16:26:19.021Z,13.82
2023-04-17T16:29:21.089Z,13.79
2023-04-17T16:32:24.326Z,13.77
2023-04-17T16:35:26.191Z,13.74
2023-04-17T16:38:27.762Z,13.72
2023-04-17T16:41:30.928Z,13.69
2023-04-17T16:44:32.898Z,13.66
2023-04-17T16:47:34.738Z,13.65
2023-04-17T16:50:36.833Z,13.63
2023-04-17T16:53:40.599Z,13.61
2023-04-17T16:56:59.559Z,13.59
2023-04-17T17:00:03.329Z,13.57
2023-04-17T17:03:05.855Z,13.55
2023-04-17T17:06:10.730Z,13.54
2023-04-17T17:09:12.546Z,13.53
2023-04-17T17:12:14.368Z,13.51
2023-04-17T17:15:16.395Z,13.49
2023-04-17T17:18:17.976Z,13.49
2023-04-17T17:21:20.296Z,13.46
2023-04-17T17:24:22.335Z,13.45
2023-04-17T17:27:24.404Z,13.42
2023-04-17T17:30:26.610Z,13.40
2023-04-17T17:33:29.556Z,13.38
2023-04-17T17:36:32.768Z,13.36
2023-04-17T17:39:35.023Z,13.32
2023-04-17T17:42:36.748Z,13.30
2023-04-17T17:45:38.865Z,13.26
2023-04-17T17:48:41.583Z,13.23
2023-04-17T17:51:43.809Z,13.18
2023-04-17T17:54:45.304Z,13.15
2023-04-17T17:57:49.472Z,13.12
2023-04-17T18:00:51.510Z,13.08
2023-04-17T18:03:53.688Z,13.05
2023-04-17T18:06:55.736Z,13.02
2023-04-17T18:09:57.342Z,12.99
2023-04-17T18:12:58.936Z,12.98
2023-04-17T18:16:03.453Z,12.95
2023-04-17T18:19:06.074Z,12.94
2023-04-17T18:22:08.428Z,12.92
2023-04-17T18:25:10.567Z,12.90
2023-04-17T18:28:12.199Z,12.88
2023-04-17T18:31:14.965Z,12.86
2023-04-17T18:34:18.180Z,12.84
2023-04-17T18:37:19.785Z,12.83
2023-04-17T18:40:21.329Z,12.81
2023-04-17T18:43:22.952Z,12.78
2023-04-17T18:46:26.339Z,12.77
2023-04-17T18:49:28.126Z,12.75
2023-04-17T18:52:29.716Z,12.73
2023-04-17T18:55:31.821Z,12.70
2023-04-17T18:58:33.396Z,12.68
2023-04-17T19:01:35.040Z,12.66
2023-04-17T19:04:36.603Z,12.65
2023-04-17T19:07:38.238Z,12.65
2023-04-17T19:10:40.271Z,12.64
2023-04-17T19:13:44.333Z,12.63
2023-04-17T19:16:47.317Z,12.62
2023-04-17T19:19:49.068Z,12.61
2023-04-17T19:22:50.646Z,12.60
2023-04-17T19:25:55.881Z,12.60
2023-04-17T19:28:58.353Z,12.59
2023-04-17T19:31:59.978Z,12.59
2023-04-17T19:35:01.818Z,12.57
2023-04-17T19:38:03.581Z,12.56
2023-04-17T19:41:17.218Z,12.55
2023-04-17T19:44:18.873Z,12.54
2023-04-17T19:47:20.473Z,12.54
2023-04-17T19:50:24.626Z,12.54
2023-04-17T19:53:36.365Z,12.53
2023-04-17T19:56:38.694Z,12.51
2023-04-17T19:59:40.412Z,12.51
2023-04-17T20:02:42.256Z,12.50
2023-04-17T20:05:44.097Z,12.49
2023-04-17T20:08:45.786Z,12.47
2023-04-17T20:11:47.501Z,12.46
2023-04-17T20:14:51.550Z,12.45
2023-04-17T20:17:56.489Z,12.44
2023-04-17T20:21:00.508Z,12.43
2023-04-17T20:24:02.170Z,12.43
2023-04-17T20:27:03.766Z,12.42
2023-04-17T20:30:06.144Z,12.41
2023-04-17T20:33:07.903Z,12.40
2023-04-17T20:36:11.583Z,12.40
2023-04-17T20:39:13.989Z,12.40
2023-04-17T20:42:15.821Z,12.39
2023-04-17T20:45:17.462Z,12.38
2023-04-17T20:48:19.075Z,12.38
2023-04-17T20:51:24.393Z,12.37
2023-04-17T20:54:26.022Z,12.37
2023-04-17T20:57:28.190Z,12.36
2023-04-17T21:00:29.871Z,12.36
2023-04-17T21:03:32.368Z,12.36
2023-04-17T21:06:34.083Z,12.35
2023-04-17T21:09:35.630Z,12.33
2023-04-17T21:12:37.203Z,12.33
2023-04-17T21:15:38.863Z,12.32
2023-04-17T21:18:40.491Z,12.32
2023-04-17T21:21:42.145Z,12.31
2023-04-17T21:24:43.826Z,12.31
2023-04-17T21:27:45.398Z,12.30
2023-04-17T21:30:47.198Z,12.29
2023-04-17T21:33:48.991Z,12.28
2023-04-17T21:36:53.059Z,12.28
2023-04-17T21:39:54.747Z,12.28
2023-04-17T21:42:56.355Z,12.26
2023-04-17T21:45:58.203Z,12.25
2023-04-17T21:49:00.206Z,12.25
2023-04-17T21:52:01.812Z,12.24
2023-04-17T21:55:05.215Z,12.23
2023-04-17T21:58:06.882Z,12.23
2023-04-17T22:01:08.639Z,12.23
2023-04-17T22:04:10.288Z,12.22
2023-04-17T22:07:12.046Z,12.22
2023-04-17T22:10:13.916Z,12.21
2023-04-17T22:13:15.744Z,12.20
2023-04-17T22:16:17.475Z,12.19
2023-04-17T22:19:19.202Z,12.18
2023-04-17T22:22:21.307Z,12.17
2023-04-17T22:25:22.923Z,12.16
2023-04-17T22:28:25.108Z,12.15
2023-04-17T22:31:26.732Z,12.14
2023-04-17T22:34:28.350Z,12.13
2023-04-17T22:37:29.880Z,12.13
2023-04-17T22:40:31.513Z,12.12
2023-04-17T22:43:33.097Z,12.11
2023-04-17T22:46:34.977Z,12.10
2023-04-17T22:49:40.001Z,12.10
2023-04-17T22:52:41.615Z,12.09
2023-04-17T22:55:43.211Z,12.08
2023-04-17T22:58:44.802Z,12.08
2023-04-17T23:01:46.376Z,12.07
2023-04-17T23:04:48.050Z,12.07
2023-04-17T23:07:49.926Z,12.06
2023-04-17T23:10:59.230Z,12.05
2023-04-17T23:14:01.279Z,12.05
2023-04-17T23:17:02.866Z,12.03
2023-04-17T23:20:04.930Z,12.02
2023-04-17T23:23:06.508Z,12.02
2023-04-17T23:26:08.139Z,12.01
2023-04-17T23:29:09.748Z,12.01
2023-04-17T23:32:11.440Z,12.00
2023-04-17T23:35:13.283Z,11.99
2023-04-17T23:38:15.250Z,11.99
2023-04-17T23:41:17.153Z,11.98
2023-04-17T23:44:18.791Z,11.97
2023-04-17T23:47:20.491Z,11.96
2023-04-17T23:50:22.111Z,11.96
2023-04-17T23:53:23.718Z,11.95
2023-04-17T23:56:25.399Z,11.94
2023-04-17T23:59:27.024Z,11.93
